Aviation Digital Data Service (ADDS)

Output produced by METARs form (1710 UTC 30 October 2020)
found at http://www.aviationweather.gov/metar/data/
 
KMCN 301653Z 35012G18KT 10SM CLR 19/08 A3008 RMK AO2 SLP185 T01940083
KMCN 301135Z 3012/3112 31011G17KT P6SM BKN020 
     FM301400 32010KT P6SM SKC 
     FM302300 35007KT P6SM SKC 
     FM310400 04005KT P6SM SKC